Time;durP1;ratioP1;P1;durP2;ratioP2;P2;SDS_P1;SDS_P2;PMS_P1;PMS_P2;Temp;Humidity;BMP_temperature;BMP_pressure;BME280_temperature;BME280_humidity;BME280_pressure;Samples;Min_cycle;Max_cycle;Signal;HPM_P1;HPM_P2
2023/04/08 00:00:06;;;;;;;14.95;12.85;;;;;;;;;;4879805;29;20043;-72
2023/04/08 00:02:32;;;;;;;14.60;13.05;;;;;;;;;;4877989;29;20075;-72
2023/04/08 00:04:58;;;;;;;16.90;13.20;;;;;;;;;;4878160;29;20107;-72
2023/04/08 00:07:24;;;;;;;19.40;13.68;;;;;;;;;;4879410;29;20320;-72
2023/04/08 00:09:50;;;;;;;18.70;13.98;;;;;;;;;;4883913;29;20135;-72
2023/04/08 00:12:16;;;;;;;16.98;14.02;;;;;;;;;;4893885;29;20052;-72
2023/04/08 00:14:42;;;;;;;17.08;14.13;;;;;;;;;;4884708;29;20048;-72
2023/04/08 00:17:08;;;;;;;18.65;14.30;;;;;;;;;;4896448;29;20138;-73
2023/04/08 00:19:34;;;;;;;18.48;14.57;;;;;;;;;;4878278;29;20150;-73
2023/04/08 00:22:01;;;;;;;16.13;13.88;;;;;;;;;;4861129;29;20053;-72
2023/04/08 00:24:27;;;;;;;17.92;14.23;;;;;;;;;;4877286;29;20095;-71
2023/04/08 00:26:53;;;;;;;20.15;14.45;;;;;;;;;;4895230;29;20143;-72
2023/04/08 00:29:19;;;;;;;19.38;13.98;;;;;;;;;;4883301;29;21536;-72
2023/04/08 00:31:45;;;;;;;20.20;14.90;;;;;;;;;;4892304;29;20094;-73
2023/04/08 00:34:11;;;;;;;20.10;15.68;;;;;;;;;;4894896;29;22151;-72
2023/04/08 00:36:37;;;;;;;20.88;14.95;;;;;;;;;;4894856;29;20044;-72
2023/04/08 00:39:05;;;;;;;20.83;15.30;;;;;;;;;;4894143;29;20487;-72
2023/04/08 00:41:33;;;;;;;18.73;14.55;;;;;;;;;;4876411;29;20077;-72
2023/04/08 00:43:59;;;;;;;20.70;15.23;;;;;;;;;;4895723;29;20043;-72
2023/04/08 00:46:25;;;;;;;22.23;15.68;;;;;;;;;;4894130;29;20062;-72
2023/04/08 00:48:52;;;;;;;22.15;14.95;;;;;;;;;;4883028;29;20047;-72
2023/04/08 00:51:18;;;;;;;20.80;15.48;;;;;;;;;;4874495;29;20626;-72
2023/04/08 00:53:44;;;;;;;23.85;16.20;;;;;;;;;;4876753;29;21460;-72
2023/04/08 00:56:10;;;;;;;19.70;15.43;;;;;;;;;;4877362;29;20044;-72
2023/04/08 00:58:37;;;;;;;20.58;14.73;;;;;;;;;;4894378;29;20058;-72
2023/04/08 01:01:05;;;;;;;21.35;15.80;;;;;;;;;;4882511;29;20044;-73
2023/04/08 01:03:34;;;;;;;22.15;16.42;;;;;;;;;;4884110;29;20076;-73
2023/04/08 01:06:10;;;;;;;23.77;16.35;;;;;;;;;;4878752;29;20044;-73
2023/04/08 01:08:37;;;;;;;22.90;16.85;;;;;;;;;;4880166;29;20736;-71
2023/04/08 01:11:05;;;;;;;23.10;18.55;;;;;;;;;;4884298;29;20043;-72
2023/04/08 01:13:34;;;;;;;22.95;18.25;;;;;;;;;;4892961;29;20867;-72
2023/04/08 01:16:01;;;;;;;24.90;17.90;;;;;;;;;;4894601;28;20054;-72
2023/04/08 01:18:29;;;;;;;21.30;17.27;;;;;;;;;;4892773;29;20103;-72
2023/04/08 01:20:56;;;;;;;25.25;18.50;;;;;;;;;;4877168;29;20484;-72
2023/04/08 01:23:31;;;;;;;24.30;18.05;;;;;;;;;;4877454;29;21816;-72
2023/04/08 01:25:57;;;;;;;22.30;17.02;;;;;;;;;;4878128;29;20062;-72
2023/04/08 01:28:24;;;;;;;24.98;17.15;;;;;;;;;;4877862;29;20048;-72
2023/04/08 01:30:51;;;;;;;26.40;17.42;;;;;;;;;;4892186;29;20087;-72
2023/04/08 01:33:18;;;;;;;21.73;17.90;;;;;;;;;;4877958;29;20219;-72
2023/04/08 01:35:45;;;;;;;22.88;18.10;;;;;;;;;;4896589;29;20058;-72
2023/04/08 01:38:15;;;;;;;23.05;17.67;;;;;;;;;;4877521;29;22013;-72
2023/04/08 01:40:41;;;;;;;25.27;17.45;;;;;;;;;;4881899;29;20052;-71
2023/04/08 01:43:09;;;;;;;22.02;17.58;;;;;;;;;;4877554;29;20217;-72
2023/04/08 01:45:35;;;;;;;22.85;18.17;;;;;;;;;;4893010;29;20154;-72
2023/04/08 01:48:02;;;;;;;24.65;17.88;;;;;;;;;;4879596;29;20078;-72
2023/04/08 01:50:29;;;;;;;22.20;17.83;;;;;;;;;;4894245;29;20179;-72
2023/04/08 01:52:55;;;;;;;22.63;18.30;;;;;;;;;;4875832;29;20047;-72
2023/04/08 01:55:21;;;;;;;24.50;18.52;;;;;;;;;;4889512;29;20702;-72
2023/04/08 01:57:49;;;;;;;25.35;18.55;;;;;;;;;;4907178;29;20131;-71
2023/04/08 02:00:18;;;;;;;25.73;19.00;;;;;;;;;;4896318;29;20518;-71
2023/04/08 02:02:45;;;;;;;24.70;17.98;;;;;;;;;;4876122;29;20052;-72
2023/04/08 02:05:11;;;;;;;25.10;18.45;;;;;;;;;;4893697;28;20052;-72
2023/04/08 02:07:38;;;;;;;25.10;18.63;;;;;;;;;;4893796;29;20052;-72
2023/04/08 02:10:04;;;;;;;22.98;18.45;;;;;;;;;;4890532;29;20044;-73
2023/04/08 02:12:30;;;;;;;26.02;19.38;;;;;;;;;;4894414;29;20054;-73
2023/04/08 02:14:57;;;;;;;23.42;18.15;;;;;;;;;;4877070;29;20043;-71
2023/04/08 02:17:32;;;;;;;22.20;17.80;;;;;;;;;;4896027;29;20132;-72
2023/04/08 02:20:04;;;;;;;25.95;19.63;;;;;;;;;;4879265;29;20497;-72
2023/04/08 02:22:43;;;;;;;26.95;19.40;;;;;;;;;;4881612;29;20048;-72
2023/04/08 02:25:11;;;;;;;24.25;18.95;;;;;;;;;;4878690;29;20047;-72
2023/04/08 02:27:39;;;;;;;29.98;20.58;;;;;;;;;;4878137;28;20194;-72
2023/04/08 02:30:07;;;;;;;27.02;20.08;;;;;;;;;;4895829;29;20055;-72
2023/04/08 02:32:34;;;;;;;26.45;20.27;;;;;;;;;;4886181;29;20079;-72
2023/04/08 02:35:04;;;;;;;29.45;21.38;;;;;;;;;;4902492;29;20082;-72
2023/04/08 02:37:33;;;;;;;29.02;21.17;;;;;;;;;;4897243;29;20080;-72
2023/04/08 02:40:00;;;;;;;31.02;21.92;;;;;;;;;;4880796;29;20488;-73
2023/04/08 02:42:26;;;;;;;31.23;21.92;;;;;;;;;;4881243;29;20059;-72
2023/04/08 02:44:52;;;;;;;31.00;21.17;;;;;;;;;;4896420;29;20071;-72
2023/04/08 02:47:18;;;;;;;28.13;21.50;;;;;;;;;;4880184;29;20048;-72
2023/04/08 02:49:44;;;;;;;29.20;21.58;;;;;;;;;;4879733;29;20327;-72
2023/04/08 02:52:10;;;;;;;29.63;21.10;;;;;;;;;;4895973;29;20503;-73
2023/04/08 02:54:36;;;;;;;30.08;21.70;;;;;;;;;;4872712;29;20114;-72
2023/04/08 02:57:02;;;;;;;30.52;21.70;;;;;;;;;;4862374;29;20050;-72
2023/04/08 02:59:28;;;;;;;27.85;20.10;;;;;;;;;;4880103;29;20047;-72
2023/04/08 03:01:54;;;;;;;30.02;22.02;;;;;;;;;;4881627;29;20047;-72
2023/04/08 03:04:20;;;;;;;34.85;21.38;;;;;;;;;;4878969;29;20059;-72
2023/04/08 03:06:46;;;;;;;29.75;21.13;;;;;;;;;;4895896;29;20067;-72
2023/04/08 03:09:12;;;;;;;33.03;21.27;;;;;;;;;;4877785;29;20457;-72
2023/04/08 03:11:38;;;;;;;30.55;22.35;;;;;;;;;;4878358;29;20051;-73
2023/04/08 03:14:05;;;;;;;28.08;21.83;;;;;;;;;;4884923;29;20047;-72
2023/04/08 03:16:31;;;;;;;32.42;21.65;;;;;;;;;;4886510;29;20743;-72
2023/04/08 03:18:57;;;;;;;30.48;22.20;;;;;;;;;;4881946;29;20110;-72
2023/04/08 03:21:23;;;;;;;29.58;22.25;;;;;;;;;;4895718;29;20040;-72
2023/04/08 03:23:49;;;;;;;34.72;22.65;;;;;;;;;;4896585;29;20115;-72
2023/04/08 03:26:15;;;;;;;29.48;21.85;;;;;;;;;;4893912;29;20055;-72
2023/04/08 03:28:41;;;;;;;33.17;22.55;;;;;;;;;;4880282;29;20568;-72
2023/04/08 03:31:08;;;;;;;29.75;21.65;;;;;;;;;;4895708;29;20110;-72
2023/04/08 03:33:34;;;;;;;32.97;23.15;;;;;;;;;;4886114;29;20135;-72
2023/04/08 03:36:00;;;;;;;33.25;22.65;;;;;;;;;;4898769;29;20280;-73
2023/04/08 03:38:26;;;;;;;35.85;24.25;;;;;;;;;;4898828;29;20162;-72
2023/04/08 03:40:52;;;;;;;37.30;24.60;;;;;;;;;;4888149;29;20620;-72
2023/04/08 03:43:20;;;;;;;35.15;24.58;;;;;;;;;;4896300;29;20067;-72
2023/04/08 03:45:46;;;;;;;35.53;24.42;;;;;;;;;;4883957;29;20139;-73
2023/04/08 03:48:12;;;;;;;33.90;24.25;;;;;;;;;;4881427;29;20040;-72
2023/04/08 03:50:38;;;;;;;34.05;24.73;;;;;;;;;;4893552;29;20079;-72
2023/04/08 03:53:05;;;;;;;37.17;25.40;;;;;;;;;;4896926;29;20044;-72
2023/04/08 03:55:31;;;;;;;36.08;23.50;;;;;;;;;;4878787;29;20052;-73
2023/04/08 03:57:57;;;;;;;33.72;24.40;;;;;;;;;;4880029;29;20044;-73
2023/04/08 04:00:23;;;;;;;39.67;25.88;;;;;;;;;;4895955;29;20044;-73
2023/04/08 04:02:49;;;;;;;37.00;24.08;;;;;;;;;;4878775;29;20069;-73
2023/04/08 04:05:15;;;;;;;33.28;23.83;;;;;;;;;;4897020;29;20109;-72
2023/04/08 04:07:41;;;;;;;40.50;23.42;;;;;;;;;;4898070;29;20155;-73
2023/04/08 04:10:09;;;;;;;35.25;23.90;;;;;;;;;;4893030;29;20044;-73
2023/04/08 04:12:35;;;;;;;35.60;23.80;;;;;;;;;;4894876;29;20052;-73
2023/04/08 04:15:01;;;;;;;31.65;22.48;;;;;;;;;;4883197;29;20047;-73
2023/04/08 04:17:27;;;;;;;32.67;22.95;;;;;;;;;;4882339;29;20044;-74
2023/04/08 04:19:53;;;;;;;32.92;22.50;;;;;;;;;;4877985;29;20043;-73
2023/04/08 04:22:19;;;;;;;31.08;21.95;;;;;;;;;;4884447;29;20048;-73
2023/04/08 04:24:48;;;;;;;33.70;22.20;;;;;;;;;;4893741;29;20739;-74
2023/04/08 04:27:18;;;;;;;33.33;21.95;;;;;;;;;;4883149;28;20054;-73
2023/04/08 04:29:44;;;;;;;29.00;20.65;;;;;;;;;;4883309;29;20043;-73
2023/04/08 04:32:10;;;;;;;31.15;21.33;;;;;;;;;;4892866;29;21661;-73
2023/04/08 04:34:36;;;;;;;27.50;19.98;;;;;;;;;;4882764;29;20052;-74
2023/04/08 04:37:02;;;;;;;28.42;19.73;;;;;;;;;;4878684;29;20576;-73
2023/04/08 04:39:28;;;;;;;27.33;18.55;;;;;;;;;;4880571;29;20056;-73
2023/04/08 04:41:54;;;;;;;27.65;19.35;;;;;;;;;;4881563;29;20048;-73
2023/04/08 04:44:20;;;;;;;25.00;18.52;;;;;;;;;;4878408;29;20805;-74
2023/04/08 04:46:46;;;;;;;22.38;17.50;;;;;;;;;;4875216;29;20764;-74
2023/04/08 04:49:12;;;;;;;25.90;18.55;;;;;;;;;;4878087;29;20494;-73
2023/04/08 04:51:38;;;;;;;27.25;18.85;;;;;;;;;;4877124;29;20050;-73
2023/04/08 04:54:04;;;;;;;24.80;18.30;;;;;;;;;;4879812;29;20084;-74
2023/04/08 04:56:31;;;;;;;23.65;17.05;;;;;;;;;;4874421;29;20047;-73
2023/04/08 04:58:57;;;;;;;22.25;16.88;;;;;;;;;;4885007;29;20915;-74
2023/04/08 05:01:23;;;;;;;25.25;17.73;;;;;;;;;;4876547;29;20122;-73
2023/04/08 05:03:49;;;;;;;23.50;17.95;;;;;;;;;;4881791;29;20185;-73
2023/04/08 05:06:15;;;;;;;25.10;18.00;;;;;;;;;;4883795;29;20347;-73
2023/04/08 05:08:41;;;;;;;22.30;17.02;;;;;;;;;;4880746;29;20707;-73
2023/04/08 05:11:11;;;;;;;22.42;16.98;;;;;;;;;;4881300;29;20132;-73
2023/04/08 05:13:37;;;;;;;24.08;16.65;;;;;;;;;;4895522;29;20662;-73
2023/04/08 05:16:03;;;;;;;23.77;17.75;;;;;;;;;;4883778;29;20058;-73
2023/04/08 05:18:29;;;;;;;21.40;16.63;;;;;;;;;;4879010;29;20106;-73
2023/04/08 05:20:55;;;;;;;22.90;16.92;;;;;;;;;;4877722;29;20102;-73
2023/04/08 05:23:24;;;;;;;23.40;17.08;;;;;;;;;;4894808;29;20177;-74
2023/04/08 05:25:51;;;;;;;22.95;15.60;;;;;;;;;;4889456;29;20077;-73
2023/04/08 05:28:17;;;;;;;20.63;15.95;;;;;;;;;;4886501;29;20082;-73
2023/04/08 05:30:43;;;;;;;20.77;15.60;;;;;;;;;;4887498;29;20051;-73
2023/04/08 05:33:09;;;;;;;21.48;16.08;;;;;;;;;;4880478;29;20507;-73
2023/04/08 05:35:35;;;;;;;20.42;14.48;;;;;;;;;;4894349;29;20067;-73
2023/04/08 05:38:01;;;;;;;20.40;15.35;;;;;;;;;;4876009;29;20047;-72
2023/04/08 05:40:27;;;;;;;21.02;15.10;;;;;;;;;;4893746;29;20082;-72
2023/04/08 05:42:54;;;;;;;22.33;14.73;;;;;;;;;;4874396;29;20059;-73
2023/04/08 05:45:20;;;;;;;19.48;15.07;;;;;;;;;;4877817;28;20056;-72
2023/04/08 05:47:46;;;;;;;22.48;16.17;;;;;;;;;;4883101;29;20706;-73
2023/04/08 05:50:12;;;;;;;20.08;15.65;;;;;;;;;;4887688;29;20150;-72
2023/04/08 05:52:42;;;;;;;21.48;16.13;;;;;;;;;;4883994;29;20485;-74
2023/04/08 05:55:08;;;;;;;19.30;15.13;;;;;;;;;;4898086;29;20468;-73
2023/04/08 05:57:34;;;;;;;21.05;15.35;;;;;;;;;;4881175;29;20226;-73
2023/04/08 06:00:01;;;;;;;21.10;14.98;;;;;;;;;;4878085;29;20052;-73
2023/04/08 06:02:27;;;;;;;19.85;14.48;;;;;;;;;;4888527;29;20071;-74
2023/04/08 06:04:53;;;;;;;17.58;13.85;;;;;;;;;;4883935;29;20043;-75
2023/04/08 06:07:19;;;;;;;22.33;15.65;;;;;;;;;;4887722;29;20070;-75
2023/04/08 06:09:45;;;;;;;19.20;15.10;;;;;;;;;;4888983;29;20594;-75
2023/04/08 06:12:11;;;;;;;20.02;14.85;;;;;;;;;;4892012;29;20052;-75
2023/04/08 06:14:37;;;;;;;21.05;14.00;;;;;;;;;;4903125;29;20140;-75
2023/04/08 06:17:04;;;;;;;20.25;14.02;;;;;;;;;;4886768;29;20408;-74
2023/04/08 06:19:30;;;;;;;18.98;14.82;;;;;;;;;;4885205;29;20074;-74
2023/04/08 06:21:57;;;;;;;20.90;15.13;;;;;;;;;;4888239;29;20107;-74
2023/04/08 06:24:25;;;;;;;19.52;15.13;;;;;;;;;;4886993;29;22163;-74
2023/04/08 06:26:52;;;;;;;17.02;13.73;;;;;;;;;;4898053;29;20386;-73
2023/04/08 06:29:18;;;;;;;20.98;14.07;;;;;;;;;;4895835;29;20996;-74
2023/04/08 06:31:44;;;;;;;21.58;15.07;;;;;;;;;;4894971;29;20098;-74
2023/04/08 06:34:10;;;;;;;21.75;15.50;;;;;;;;;;4898929;29;20035;-74
2023/04/08 06:36:36;;;;;;;18.05;14.45;;;;;;;;;;4882595;29;20043;-74
2023/04/08 06:39:03;;;;;;;17.08;14.10;;;;;;;;;;4881113;29;20128;-75
2023/04/08 06:41:29;;;;;;;22.00;15.30;;;;;;;;;;4883775;29;20052;-74
2023/04/08 06:43:55;;;;;;;21.95;15.35;;;;;;;;;;4880656;29;20043;-74
2023/04/08 06:46:21;;;;;;;20.55;15.48;;;;;;;;;;4876731;29;20047;-74
2023/04/08 06:48:47;;;;;;;18.50;15.13;;;;;;;;;;4882798;29;20047;-75
2023/04/08 06:51:14;;;;;;;19.70;14.32;;;;;;;;;;4888022;29;20051;-74
2023/04/08 06:53:40;;;;;;;20.90;16.25;;;;;;;;;;4900260;29;20071;-70
2023/04/08 06:56:06;;;;;;;23.00;16.42;;;;;;;;;;4901267;29;20146;-70
2023/04/08 06:58:32;;;;;;;24.20;17.63;;;;;;;;;;4904977;29;20062;-70
2023/04/08 07:01:00;;;;;;;25.60;18.55;;;;;;;;;;4901583;29;20091;-70
2023/04/08 07:03:26;;;;;;;25.08;17.85;;;;;;;;;;4899933;29;20106;-70
2023/04/08 07:05:52;;;;;;;24.67;16.35;;;;;;;;;;4909391;29;20060;-69
2023/04/08 07:08:18;;;;;;;23.42;17.35;;;;;;;;;;4897090;29;20063;-69
2023/04/08 07:10:44;;;;;;;23.35;16.52;;;;;;;;;;4887664;29;20134;-70
2023/04/08 07:13:11;;;;;;;22.17;16.00;;;;;;;;;;4904541;29;20692;-69
2023/04/08 07:15:37;;;;;;;20.23;16.63;;;;;;;;;;4900813;29;20067;-69
2023/04/08 07:18:03;;;;;;;23.77;16.38;;;;;;;;;;4883809;29;20176;-69
2023/04/08 07:20:30;;;;;;;23.50;16.80;;;;;;;;;;4904048;29;20044;-70
2023/04/08 07:22:56;;;;;;;23.85;17.65;;;;;;;;;;4893577;29;20055;-69
2023/04/08 07:25:22;;;;;;;23.08;16.52;;;;;;;;;;4887761;29;20062;-69
2023/04/08 07:27:48;;;;;;;21.55;15.80;;;;;;;;;;4894235;29;20110;-67
2023/04/08 07:30:14;;;;;;;23.00;15.90;;;;;;;;;;4895074;29;20040;-67
2023/04/08 07:32:40;;;;;;;20.65;15.70;;;;;;;;;;4895824;29;20054;-67
2023/04/08 07:35:06;;;;;;;19.52;14.63;;;;;;;;;;4902451;29;22147;-67
2023/04/08 07:37:32;;;;;;;20.42;13.93;;;;;;;;;;4887846;29;20048;-67
2023/04/08 07:39:58;;;;;;;19.52;14.55;;;;;;;;;;4902590;29;20126;-67
2023/04/08 07:42:24;;;;;;;19.35;13.35;;;;;;;;;;4902602;28;20050;-67
2023/04/08 07:44:51;;;;;;;13.73;10.70;;;;;;;;;;4883535;29;20078;-76
2023/04/08 07:47:17;;;;;;;19.70;11.45;;;;;;;;;;4881887;29;20051;-74
2023/04/08 07:49:46;;;;;;;17.25;12.43;;;;;;;;;;4882418;29;20052;-74
2023/04/08 07:52:12;;;;;;;15.63;11.82;;;;;;;;;;4896181;29;20052;-75
2023/04/08 07:54:39;;;;;;;16.92;12.05;;;;;;;;;;4898060;29;20051;-75
2023/04/08 07:57:05;;;;;;;16.60;12.57;;;;;;;;;;4885718;28;20434;-75
2023/04/08 07:59:31;;;;;;;20.95;12.60;;;;;;;;;;4881529;29;20122;-75
2023/04/08 08:01:57;;;;;;;19.55;12.05;;;;;;;;;;4882172;29;20135;-75
2023/04/08 08:04:26;;;;;;;21.23;12.43;;;;;;;;;;4879768;29;20055;-75
2023/04/08 08:06:52;;;;;;;16.10;11.93;;;;;;;;;;4880417;29;20110;-74
2023/04/08 08:09:18;;;;;;;19.27;12.18;;;;;;;;;;4899669;29;20075;-75
2023/04/08 08:11:44;;;;;;;18.65;14.05;;;;;;;;;;4880829;29;20194;-75
2023/04/08 08:14:12;;;;;;;24.35;15.45;;;;;;;;;;4882228;29;20044;-76
2023/04/08 08:16:38;;;;;;;24.20;16.15;;;;;;;;;;4897099;29;20051;-74
2023/04/08 08:19:06;;;;;;;18.92;14.02;;;;;;;;;;4882566;29;20481;-75
2023/04/08 08:21:32;;;;;;;21.23;14.57;;;;;;;;;;4897516;29;20112;-75
2023/04/08 08:23:58;;;;;;;22.73;14.63;;;;;;;;;;4885498;28;20289;-75
2023/04/08 08:26:24;;;;;;;21.15;15.05;;;;;;;;;;4881001;29;20051;-74
2023/04/08 08:28:51;;;;;;;19.67;14.13;;;;;;;;;;4884271;29;20047;-76
2023/04/08 08:31:17;;;;;;;22.52;15.13;;;;;;;;;;4882203;29;20075;-74
2023/04/08 08:33:43;;;;;;;22.08;14.70;;;;;;;;;;4880164;29;20040;-75
2023/04/08 08:36:09;;;;;;;21.33;15.27;;;;;;;;;;4896431;29;20050;-75
2023/04/08 08:38:35;;;;;;;23.20;15.35;;;;;;;;;;4864710;29;20106;-75
2023/04/08 08:41:02;;;;;;;25.02;15.98;;;;;;;;;;4881254;29;20524;-75
2023/04/08 08:43:32;;;;;;;22.80;16.25;;;;;;;;;;4886814;29;20048;-74
2023/04/08 08:45:58;;;;;;;22.20;15.77;;;;;;;;;;4903274;29;20064;-76
2023/04/08 08:48:25;;;;;;;22.45;16.02;;;;;;;;;;4899293;29;20377;-73
2023/04/08 08:50:51;;;;;;;25.33;16.02;;;;;;;;;;4889134;29;20044;-75
2023/04/08 08:53:18;;;;;;;27.52;18.60;;;;;;;;;;4894434;29;20047;-74
2023/04/08 08:55:44;;;;;;;22.98;16.25;;;;;;;;;;4903582;29;20059;-74
2023/04/08 08:58:10;;;;;;;24.40;17.27;;;;;;;;;;4893565;29;20036;-75
2023/04/08 09:00:37;;;;;;;24.13;17.13;;;;;;;;;;4886765;29;20048;-76
2023/04/08 09:03:26;;;;;;;27.38;17.35;;;;;;;;;;4886852;29;20134;-75
2023/04/08 09:05:53;;;;;;;25.40;15.73;;;;;;;;;;4887996;29;20056;-75
2023/04/08 09:08:27;;;;;;;22.48;15.98;;;;;;;;;;4885910;29;20158;-75
2023/04/08 09:10:54;;;;;;;28.20;16.45;;;;;;;;;;4894283;29;20051;-76
2023/04/08 09:13:22;;;;;;;25.55;16.25;;;;;;;;;;4885299;29;20054;-75
2023/04/08 09:16:04;;;;;;;26.50;16.33;;;;;;;;;;4901971;29;20051;-75
2023/04/08 09:18:31;;;;;;;25.33;16.52;;;;;;;;;;4887757;29;20054;-74
2023/04/08 09:20:59;;;;;;;25.05;15.25;;;;;;;;;;4886134;29;20043;-75
2023/04/08 09:23:36;;;;;;;23.00;16.25;;;;;;;;;;4886666;29;20054;-74
2023/04/08 09:26:09;;;;;;;27.13;17.35;;;;;;;;;;4884985;29;20062;-75
2023/04/08 09:28:35;;;;;;;29.40;17.30;;;;;;;;;;4900885;28;20047;-75
2023/04/08 09:31:17;;;;;;;25.85;17.13;;;;;;;;;;4902946;29;20048;-75
2023/04/08 09:33:43;;;;;;;26.75;16.65;;;;;;;;;;4886895;29;20066;-75
2023/04/08 09:36:09;;;;;;;29.13;20.10;;;;;;;;;;4893273;29;20049;-75
2023/04/08 09:38:35;;;;;;;27.73;18.60;;;;;;;;;;4890950;29;20079;-75
2023/04/08 09:41:06;;;;;;;30.35;18.35;;;;;;;;;;4895146;29;20040;-75
2023/04/08 09:43:36;;;;;;;24.75;17.00;;;;;;;;;;4883068;29;20079;-74
2023/04/08 09:46:04;;;;;;;34.70;19.55;;;;;;;;;;4879636;29;20403;-74
2023/04/08 09:48:35;;;;;;;29.48;18.35;;;;;;;;;;4880248;29;20052;-74
2023/04/08 09:51:04;;;;;;;32.28;19.83;;;;;;;;;;4880188;29;20048;-75
2023/04/08 09:53:34;;;;;;;28.80;18.75;;;;;;;;;;4881195;29;20571;-75
2023/04/08 09:56:00;;;;;;;36.03;20.42;;;;;;;;;;4896696;28;20567;-75
2023/04/08 09:58:31;;;;;;;28.27;19.75;;;;;;;;;;4885985;29;20047;-75
2023/04/08 10:00:58;;;;;;;35.20;19.25;;;;;;;;;;4879001;29;20043;-75
2023/04/08 10:03:30;;;;;;;27.23;16.85;;;;;;;;;;4881282;29;20055;-75
2023/04/08 10:05:58;;;;;;;25.65;15.52;;;;;;;;;;4880200;29;20132;-75
2023/04/08 10:08:26;;;;;;;25.75;15.85;;;;;;;;;;4878947;29;20060;-74
2023/04/08 10:10:53;;;;;;;25.73;15.98;;;;;;;;;;4883441;29;20114;-74
2023/04/08 10:13:19;;;;;;;22.45;14.93;;;;;;;;;;4878831;29;20055;-74
2023/04/08 10:15:46;;;;;;;24.63;15.40;;;;;;;;;;4879872;29;20653;-73
2023/04/08 10:18:19;;;;;;;23.60;15.95;;;;;;;;;;4897084;29;20408;-73
2023/04/08 10:20:46;;;;;;;25.98;16.83;;;;;;;;;;4886318;29;20039;-73
2023/04/08 10:23:14;;;;;;;32.35;18.73;;;;;;;;;;4887683;29;20051;-74
2023/04/08 10:25:41;;;;;;;27.73;19.67;;;;;;;;;;4893316;29;20104;-74
2023/04/08 10:28:14;;;;;;;25.88;17.48;;;;;;;;;;4885866;29;20040;-74
2023/04/08 10:30:41;;;;;;;26.45;17.90;;;;;;;;;;4895455;29;20063;-74
2023/04/08 10:33:12;;;;;;;28.00;18.77;;;;;;;;;;4884852;29;20510;-75
2023/04/08 10:35:41;;;;;;;25.65;18.02;;;;;;;;;;4894242;28;20111;-74
2023/04/08 10:38:07;;;;;;;29.70;19.58;;;;;;;;;;4862691;29;20044;-74
2023/04/08 10:40:41;;;;;;;24.88;18.63;;;;;;;;;;4883482;29;20047;-74
2023/04/08 10:43:07;;;;;;;27.00;19.02;;;;;;;;;;4895786;29;20047;-74
2023/04/08 10:45:33;;;;;;;26.92;19.65;;;;;;;;;;4877909;29;20636;-74
2023/04/08 10:48:18;;;;;;;29.40;19.63;;;;;;;;;;4892504;29;20087;-74
2023/04/08 10:50:52;;;;;;;30.50;20.40;;;;;;;;;;4896742;29;20503;-74
2023/04/08 10:53:23;;;;;;;29.27;20.02;;;;;;;;;;4888975;29;20043;-74
2023/04/08 10:55:50;;;;;;;29.50;19.58;;;;;;;;;;4882542;29;20048;-74
2023/04/08 10:58:16;;;;;;;33.03;21.08;;;;;;;;;;4883371;29;20639;-74
2023/04/08 11:00:42;;;;;;;31.98;20.73;;;;;;;;;;4898323;29;20044;-74
2023/04/08 11:03:09;;;;;;;35.42;21.73;;;;;;;;;;4878863;29;20052;-74
2023/04/08 11:05:36;;;;;;;36.03;21.83;;;;;;;;;;4881775;29;20674;-74
2023/04/08 11:08:03;;;;;;;31.40;19.70;;;;;;;;;;4902835;29;20064;-75
2023/04/08 11:10:29;;;;;;;23.45;17.02;;;;;;;;;;4888999;28;20071;-74
2023/04/08 11:12:56;;;;;;;28.50;20.30;;;;;;;;;;4898412;29;20051;-74
2023/04/08 11:15:24;;;;;;;24.83;18.23;;;;;;;;;;4899823;29;20130;-74
2023/04/08 11:17:50;;;;;;;26.25;16.98;;;;;;;;;;4898796;29;20051;-74
2023/04/08 11:20:16;;;;;;;22.95;16.48;;;;;;;;;;4869436;29;20043;-74
2023/04/08 11:22:46;;;;;;;22.90;16.20;;;;;;;;;;4881028;29;20417;-74
2023/04/08 11:25:12;;;;;;;17.80;12.30;;;;;;;;;;4899200;29;20619;-74
2023/04/08 11:27:39;;;;;;;20.38;13.57;;;;;;;;;;4886625;29;20040;-74
2023/04/08 11:30:06;;;;;;;19.60;13.70;;;;;;;;;;4895935;29;20167;-74
2023/04/08 11:32:35;;;;;;;19.80;14.13;;;;;;;;;;4887478;29;20522;-75
2023/04/08 11:35:01;;;;;;;19.95;14.85;;;;;;;;;;4884544;29;20043;-74
2023/04/08 11:37:36;;;;;;;18.52;13.35;;;;;;;;;;4894188;29;20043;-75
2023/04/08 11:40:02;;;;;;;18.08;13.52;;;;;;;;;;4887106;29;20044;-75
2023/04/08 11:42:29;;;;;;;17.10;13.82;;;;;;;;;;4890414;29;20080;-75
2023/04/08 11:44:55;;;;;;;17.55;12.85;;;;;;;;;;4882460;29;20052;-75
2023/04/08 11:47:21;;;;;;;16.58;11.73;;;;;;;;;;4883041;29;20052;-74
2023/04/08 11:49:47;;;;;;;18.73;12.95;;;;;;;;;;4883812;29;20078;-74
2023/04/08 11:52:14;;;;;;;16.60;12.15;;;;;;;;;;4883835;29;20071;-74
2023/04/08 11:54:41;;;;;;;19.30;13.00;;;;;;;;;;4897169;29;20063;-74
2023/04/08 11:57:08;;;;;;;17.65;12.20;;;;;;;;;;4902560;29;20416;-74
2023/04/08 11:59:38;;;;;;;14.38;11.95;;;;;;;;;;4887370;29;20068;-74
2023/04/08 12:02:04;;;;;;;15.13;12.23;;;;;;;;;;4892214;29;20044;-74
2023/04/08 12:04:31;;;;;;;17.42;11.48;;;;;;;;;;4890360;29;20552;-74
2023/04/08 12:06:57;;;;;;;15.63;11.43;;;;;;;;;;4885482;29;20469;-74
2023/04/08 12:09:23;;;;;;;14.75;11.05;;;;;;;;;;4884453;29;20071;-74
2023/04/08 12:11:49;;;;;;;14.73;11.30;;;;;;;;;;4882051;29;20449;-74
2023/04/08 12:14:15;;;;;;;17.25;11.68;;;;;;;;;;4883034;29;20157;-74
2023/04/08 12:16:41;;;;;;;16.50;11.75;;;;;;;;;;4880369;29;20385;-74
2023/04/08 12:19:07;;;;;;;17.33;11.85;;;;;;;;;;4881874;29;20154;-72
2023/04/08 12:21:33;;;;;;;18.83;10.95;;;;;;;;;;4882093;29;20051;-73
2023/04/08 12:24:00;;;;;;;12.60;10.98;;;;;;;;;;4896216;29;20182;-73
2023/04/08 12:26:26;;;;;;;14.35;11.57;;;;;;;;;;4879819;29;20787;-74
2023/04/08 12:28:52;;;;;;;13.07;11.55;;;;;;;;;;4880257;29;20110;-73
2023/04/08 12:31:18;;;;;;;14.70;11.65;;;;;;;;;;4882219;29;20051;-73
2023/04/08 12:33:44;;;;;;;16.92;12.18;;;;;;;;;;4879061;29;20674;-73
2023/04/08 12:36:10;;;;;;;16.10;13.85;;;;;;;;;;4872329;29;20158;-73
2023/04/08 12:38:37;;;;;;;18.20;13.68;;;;;;;;;;4880082;29;20036;-74
2023/04/08 12:41:06;;;;;;;14.88;12.77;;;;;;;;;;4883701;29;20039;-74
2023/04/08 12:43:33;;;;;;;15.32;12.32;;;;;;;;;;4896151;29;20052;-74
2023/04/08 12:46:00;;;;;;;17.17;13.20;;;;;;;;;;4898302;29;20068;-74
2023/04/08 12:48:27;;;;;;;21.77;13.02;;;;;;;;;;4879812;29;20055;-74
2023/04/08 12:50:53;;;;;;;15.35;13.10;;;;;;;;;;4879752;29;20050;-74
2023/04/08 12:53:19;;;;;;;15.38;13.27;;;;;;;;;;4883922;29;20071;-74
2023/04/08 12:55:45;;;;;;;15.65;13.95;;;;;;;;;;4897002;29;22157;-74
2023/04/08 12:58:11;;;;;;;15.23;13.30;;;;;;;;;;4886823;29;20091;-73
2023/04/08 13:00:38;;;;;;;20.80;14.75;;;;;;;;;;4888056;29;20591;-74
2023/04/08 13:03:05;;;;;;;16.10;14.23;;;;;;;;;;4898142;29;20059;-74
2023/04/08 13:05:31;;;;;;;17.35;14.75;;;;;;;;;;4887382;29;20047;-73
2023/04/08 13:07:57;;;;;;;18.60;15.10;;;;;;;;;;4895894;29;20139;-73
2023/04/08 13:10:24;;;;;;;21.58;15.85;;;;;;;;;;4890079;29;20048;-73
2023/04/08 13:12:50;;;;;;;20.15;16.10;;;;;;;;;;4896011;29;21134;-73
2023/04/08 13:15:16;;;;;;;25.88;16.85;;;;;;;;;;4883112;29;20048;-73
2023/04/08 13:17:42;;;;;;;19.63;17.48;;;;;;;;;;4898302;29;20044;-72
2023/04/08 13:20:09;;;;;;;23.27;18.33;;;;;;;;;;4897923;28;20069;-73
2023/04/08 13:22:35;;;;;;;21.05;18.48;;;;;;;;;;4880005;29;20062;-72
2023/04/08 13:25:01;;;;;;;21.70;19.40;;;;;;;;;;4886419;29;21495;-72
2023/04/08 13:27:27;;;;;;;23.55;21.02;;;;;;;;;;4882526;29;20162;-72
2023/04/08 13:29:54;;;;;;;25.90;23.15;;;;;;;;;;4881509;29;20047;-72
2023/04/08 13:32:20;;;;;;;30.45;22.63;;;;;;;;;;4881898;29;20056;-72
2023/04/08 13:34:46;;;;;;;29.45;25.10;;;;;;;;;;4882396;29;20044;-72
2023/04/08 13:37:12;;;;;;;31.40;25.70;;;;;;;;;;4880530;29;20087;-72
2023/04/08 13:39:39;;;;;;;31.00;27.13;;;;;;;;;;4884860;29;22120;-72
2023/04/08 13:42:05;;;;;;;32.17;28.23;;;;;;;;;;4890872;29;20055;-73
2023/04/08 13:44:32;;;;;;;36.65;29.45;;;;;;;;;;4892263;29;20048;-72
2023/04/08 13:46:58;;;;;;;31.50;28.10;;;;;;;;;;4878401;29;20082;-72
2023/04/08 13:49:24;;;;;;;37.63;29.60;;;;;;;;;;4895738;29;20063;-72
2023/04/08 13:51:51;;;;;;;33.30;28.55;;;;;;;;;;4879486;29;20048;-72
2023/04/08 13:54:17;;;;;;;37.80;31.13;;;;;;;;;;4895263;29;20044;-72
2023/04/08 13:56:43;;;;;;;35.42;31.30;;;;;;;;;;4883903;29;20043;-73
2023/04/08 13:59:09;;;;;;;35.17;30.45;;;;;;;;;;4881824;28;20044;-72
2023/04/08 14:01:35;;;;;;;33.20;29.55;;;;;;;;;;4878889;29;20141;-72
2023/04/08 14:04:01;;;;;;;32.83;28.85;;;;;;;;;;4881579;29;20052;-72
2023/04/08 14:06:27;;;;;;;32.47;28.90;;;;;;;;;;4882500;29;21208;-72
2023/04/08 14:08:53;;;;;;;33.83;29.38;;;;;;;;;;4881356;29;20051;-72
2023/04/08 14:11:20;;;;;;;37.45;29.08;;;;;;;;;;4878756;29;20092;-72
2023/04/08 14:13:46;;;;;;;31.63;28.38;;;;;;;;;;4893046;29;20059;-72